Driver Category
Driver Brief Information
title:

Dell Photo All-In-One Printer Driver

Vendor:Dell
Category:Printer
License:Driver
OS: Windows 2000/XP
Version: v.G11a A02
File Size: 36.07 Mb
Release: 13 Oct 2005
Update: 9 Nov 2005
Filename: _g11aweb32924en.exe
Download Instruction
Brand:Dell, Product:Printer, Model: 924, Driver: v.G11a A02, OS: Windows 2000/XP. Dell Photo All-In-One Printer 924 Driver v.G11a A02 Windows 2000/XP was collected from Dell official site for Dell Printer. In order to ensure the right driver download, Official driver links from Dell are listed at first. If the official driver can not be downloaded, a copy of official driver can be provided at local server download.opendrivers.com, download1.opendrivers.com, or dl2.opendrivers.com. Besides, Both the driver developer's home page and driver download and support page be provided as well in my Dell page.
Official Driver Download
Files in Driver Package
   Date      Time    Attr         Size   Compressed  Name
------------------- ----- ------------ ------------  ------------------------
2005-09-28 11:02:22 D....            0            0  apps
2005-09-28 11:02:24 D....            0            0  apps/aioc
2005-07-08 16:57:14 ....A        11435         2626  apps/aioc/aioc_app.ini
2005-07-29 07:09:36 ....A       178020       170813  apps/aioc/dlccactl.dl_
2005-07-29 07:06:22 ....A       112412       106674  apps/aioc/dlccafcn.dl_
2005-07-29 07:15:10 ....A       245542       236818  apps/aioc/dlccaiox.ex_
2005-07-29 07:12:24 ....A        64750        61080  apps/aioc/dlccatg.dl_
2005-07-29 07:16:36 ....A        55555        53146  apps/aioc/dlccatw.dl_
2005-07-29 07:05:06 ....A       125236       120441  apps/aioc/dlccautl.dl_
2005-06-06 11:58:38 ....A        65536        20463  apps/aioc/dlcccfg.dll
2005-04-01 12:44:16 ....A        30815        29305  apps/aioc/dlcccnv4.dl_
2005-06-21 16:18:58 ....A       355341       340414  apps/aioc/dlcccomc.dl_
2005-06-16 11:19:20 ....A       219225       209491  apps/aioc/dlcccomx.dl_
2005-07-22 14:55:34 ....A       150358       144449  apps/aioc/dlccdds.dl_
2005-04-27 17:30:44 ....A        62459        59522  apps/aioc/dlccdrec.dl_
2005-07-22 14:54:16 ....A       177711       171868  apps/aioc/dlccdrs.dl_
2005-07-22 14:08:46 ....A       559058       534946  apps/aioc/dlccgf.dl_
2005-06-21 16:19:48 ....A        69654        66623  apps/aioc/dlccpplc.dl_
2005-06-21 16:18:24 ....A        55064        52069  apps/aioc/dlccprox.dl_
2005-03-30 13:39:22 ....A         5519         4933  apps/aioc/dlccrpt.gd_
2005-07-22 14:56:06 ....A       122098       117588  apps/aioc/dlccscw.dl_
2005-03-30 13:39:22 ....A       231872       160109  apps/aioc/dlcctemp.gd_
2005-06-06 08:11:48 ....A        94757        90380  apps/aioc/dlcctsfw.dl_
2005-08-30 12:06:04 ....A       206152       197253  apps/aioc/dlccutil.dl_
2005-09-28 11:02:26 D....            0            0  apps/aioc/ENGLISH
2005-07-29 07:16:50 ....A       337490       324580  apps/aioc/ENGLISH/dlccactr.dl_
2005-07-29 07:16:44 ....A      1005753       731305  apps/aioc/ENGLISH/dlccaior.dl_
2005-07-29 07:16:58 ....A        62283        56179  apps/aioc/ENGLISH/dlccatgr.dl_
2005-07-29 07:17:04 ....A       190939        90220  apps/aioc/ENGLISH/dlccatwr.dl_
2005-08-30 12:08:30 ....A        37511        35473  apps/aioc/ENGLISH/dlccjswr.dl_
2005-07-22 15:03:00 ....A       214600       197559  apps/aioc/ENGLISH/dlccmon.ex_
2005-03-30 13:39:22 ....A         8558         7851  apps/aioc/ENGLISH/dlcctemp.dl_
2005-03-30 13:39:24 ....A      1180307      1123921  apps/aioc/gdiplus.dl_
2005-06-13 16:57:54 ....A        71874        66596  apps/aioc/iptk.dl_
2004-11-03 05:35:10 ....A        50604        48367  apps/aioc/lfacs13n.dl_
2004-11-03 05:35:10 ....A       121609       110102  apps/aioc/lfafp13n.dl_
2004-11-03 05:35:12 ....A        14241        13843  apps/aioc/lfani13n.dl_
2004-11-03 05:35:12 ....A        11462        11045  apps/aioc/lfavi13n.dl_
2004-11-03 05:35:14 ....A        11927        11594  apps/aioc/lfawd13n.dl_
2004-11-03 05:35:14 ....A        17517        16997  apps/aioc/lfbmp13n.dl_
2004-11-03 05:35:16 ....A        32176        31158  apps/aioc/lfcal13n.dl_
2004-11-03 05:35:16 ....A        51535        49340  apps/aioc/lfcgm13n.dl_
2004-11-03 05:35:18 ....A        16822        16307  apps/aioc/lfclp13n.dl_
2004-11-03 05:35:18 ....A       202867       190354  apps/aioc/lfcmp13n.dl_
2004-11-03 05:35:20 ....A       249353       234715  apps/aioc/lfcmw13n.dl_
2004-11-03 05:35:22 ....A        51277        49100  apps/aioc/lfcmx13n.dl_
2004-11-03 05:35:22 ....A        11453        11056  apps/aioc/lfcut13n.dl_
2004-11-03 05:35:24 ....A        45427        43219  apps/aioc/lfdgn13n.dl_
2004-11-03 05:35:24 ....A        35310        33621  apps/aioc/lfdrw13n.dl_
2004-11-03 05:35:26 ....A       231327       220854  apps/aioc/lfdwf13n.dl_
2004-11-03 05:35:26 ....A        78235        75168  apps/aioc/lfdwg13n.dl_
2004-11-03 05:35:28 ....A       108329       104118  apps/aioc/lfdxf13n.dl_
2004-11-03 05:35:30 ....A        28479        27582  apps/aioc/lfeps13n.dl_
2004-11-03 05:35:30 ....A        28349        26248  apps/aioc/lffax13n.dl_
2004-11-03 05:35:32 ....A        21486        20894  apps/aioc/lfflc13n.dl_
2004-11-03 05:35:32 ....A        45858        44427  apps/aioc/lffpx13n.dl_
2000-04-12 17:24:10 ....A       179949       173669  apps/aioc/lffpx7.dl_
2004-11-03 05:35:34 ....A        62881        60342  apps/aioc/lfgbr13n.dl_
2004-11-03 05:35:34 ....A        28302        27460  apps/aioc/lfgif13n.dl_
2004-11-03 05:35:36 ....A        27644        26841  apps/aioc/lfica13n.dl_
2004-11-03 05:35:36 ....A        16284        15796  apps/aioc/lfiff13n.dl_
2004-11-03 05:35:38 ....A        11516        11166  apps/aioc/lfimg13n.dl_
2004-11-03 05:35:38 ....A        11314        10915  apps/aioc/lfitg13n.dl_
2004-11-03 05:35:40 ....A       144704       138716  apps/aioc/lfj2k13n.dl_
2004-11-03 05:35:40 ....A        48000        46388  apps/aioc/lfjbg13n.dl_
2000-04-12 17:28:12 ....A        65169        63100  apps/aioc/lfkodak.dl_
2004-11-03 05:35:42 ....A        15754        15332  apps/aioc/lflma13n.dl_
2004-11-03 05:35:44 ....A        17579        16983  apps/aioc/lflmb13n.dl_
2004-11-03 05:35:44 ....A        10300         9954  apps/aioc/lfmac13n.dl_
2004-11-03 05:35:44 ....A        60872        59065  apps/aioc/lfmpg13n.dl_
2004-11-03 05:35:46 ....A        10353        10010  apps/aioc/lfmsp13n.dl_
2004-11-03 05:35:48 ....A        10694        10317  apps/aioc/lfpcd13n.dl_
2004-11-03 05:35:48 ....A        76717        73601  apps/aioc/lfpcl13n.dl_
2004-11-03 05:35:50 ....A        38216        36975  apps/aioc/lfpct13n.dl_
2004-11-03 05:35:50 ....A        15172        14661  apps/aioc/lfpcx13n.dl_
2004-11-03 05:35:52 ....A       104237       100608  apps/aioc/lfpdf13n.dl_
2004-11-03 05:35:52 ....A        88335        84713  apps/aioc/lfpng13n.dl_
2004-11-03 05:35:54 ....A        17754        17219  apps/aioc/lfpnm13n.dl_
2004-11-03 05:35:54 ....A        34169        33101  apps/aioc/lfpsd13n.dl_
2004-11-03 05:35:56 ....A        44770        42583  apps/aioc/lfptk13n.dl_
2004-11-03 05:35:56 ....A        11523        11151  apps/aioc/lfras13n.dl_
2004-11-03 05:35:58 ....A         9650         9348  apps/aioc/lfraw13n.dl_
2004-11-03 05:35:58 ....A        39608        37663  apps/aioc/lfsct13n.dl_
2004-11-03 05:36:00 ....A        11341        10983  apps/aioc/lfsgi13n.dl_
2004-11-03 05:36:00 ....A        46317        44200  apps/aioc/lfshp13n.dl_
2002-08-21 12:38:18 ....A        17045        16007  apps/aioc/lfsmp13n.dl_
2004-11-03 05:36:02 ....A       267740       254798  apps/aioc/lfsvg13n.dl_
2004-11-03 05:36:04 ....A        13362        12929  apps/aioc/lftga13n.dl_
2004-11-03 05:36:04 ....A        83904        81198  apps/aioc/lftif13n.dl_
2004-11-03 05:36:06 ....A        16456        15432  apps/aioc/lfvec13n.dl_
2004-11-03 05:36:06 ....A        58543        56201  apps/aioc/lfvpg13n.dl_
2004-11-03 05:36:08 ....A        11186        10798  apps/aioc/lfwfx13n.dl_
2004-11-03 05:36:08 ....A        25167        23891  apps/aioc/lfwmf13n.dl_
2004-11-03 05:36:10 ....A        16523        15429  apps/aioc/lfwmp13n.dl_
2004-11-03 05:36:10 ....A        11327        10970  apps/aioc/lfwpg13n.dl_
2004-11-03 05:36:12 ....A        28038        27133  apps/aioc/lfxbm13n.dl_
2004-11-03 05:36:12 ....A        30400        29379  apps/aioc/lfxpm13n.dl_
2004-11-03 05:36:14 ....A        13784        13311  apps/aioc/lfxwd13n.dl_
2004-11-03 05:36:14 ....A       555838       517030  apps/aioc/ltann13n.dl_
2004-11-03 05:36:16 ....A        62253        59688  apps/aioc/ltaut13n.dl_
2002-08-22 20:29:30 ....A        37686        36251  apps/aioc/ltbar13n.dl_
2004-11-03 05:36:18 ....A      1187942      1063006  apps/aioc/ltclr13n.dl_
2004-11-03 05:36:22 ....A        44977        42872  apps/aioc/ltcon13n.dl_
2001-12-03 17:50:20 ....A       402108       386392  apps/aioc/ltcry13n.dl_
2004-11-03 05:36:22 ....A       443447       422632  apps/aioc/ltdic13n.dl_
2004-11-03 05:36:24 ....A       136989       132552  apps/aioc/ltdis13n.dl_
2004-11-03 05:36:26 ....A       760012       726877  apps/aioc/ltdlg13n.dl_
2004-11-03 05:36:30 ....A        87237        84691  apps/aioc/ltefx13n.dl_
2004-11-03 05:36:32 ....A        84077        81206  apps/aioc/ltfil13n.dl_
2004-11-03 05:36:34 ....A       248839       241085  apps/aioc/ltimg13n.dl_
2004-11-03 05:36:36 ....A        17631        17167  apps/aioc/ltisi13n.dl_
2004-11-03 05:36:38 ....A       246792       234031  apps/aioc/ltkrn13n.dl_
2004-11-03 05:36:38 ....A        30511        29615  apps/aioc/ltlst13n.dl_
2004-11-03 05:36:42 ....A        35376        34221  apps/aioc/ltnet13n.dl_
2004-11-03 05:36:44 ....A        63804        61275  apps/aioc/ltocr13n.dl_
2004-11-03 05:36:48 ....A        30258        28823  apps/aioc/ltpdg13n.dl_
2004-11-03 05:36:50 ....A        85146        81858  apps/aioc/ltpnt13n.dl_
2002-08-21 13:40:44 ....A       384959       366064  apps/aioc/ltrtn13n.dl_
2004-11-03 05:36:52 ....A        80733        77325  apps/aioc/ltscr13n.dl_
2004-11-03 05:36:54 ....A        62064        59610  apps/aioc/ltsgm13n.dl_
2004-11-03 05:36:56 ....A        32965        31232  apps/aioc/lttlb13n.dl_
2001-12-03 17:50:58 ....A        83901        80807  apps/aioc/lttls13n.dl_
2004-11-03 05:36:58 ....A        18485        17888  apps/aioc/lttmb13n.dl_
2004-11-03 05:37:00 ....A        80355        77057  apps/aioc/lttw213n.dl_
2004-11-03 05:37:02 ....A        24848        24095  apps/aioc/lttwn13n.dl_
2004-11-03 05:37:04 ....A        22477        20788  apps/aioc/ltweb13n.dl_
2001-11-19 17:57:04 ....A       342926       322556  apps/aioc/ltwen13n.dl_
2004-11-03 05:37:04 ....A        15879        15398  apps/aioc/ltwnd13n.dl_
2004-11-03 05:37:06 ....A       370294       337088  apps/aioc/ltwvc13n.dl_
2004-11-03 05:37:08 ....A        84535        80633  apps/aioc/lvdlg13n.dl_
2004-11-03 05:37:08 ....A        23830        22520  apps/aioc/lvdx13n.dl_
2004-11-03 05:37:10 ....A        25753        24398  apps/aioc/lvgl13n.dl_
2004-11-03 05:37:10 ....A       144875       138960  apps/aioc/lvkrn13n.dl_
2005-07-12 10:48:02 ....A       576823       552393  apps/aioc/mfc42.dl_
2000-05-02 05:17:00 ....A        99560        96849  apps/aioc/pcdlib32.dl_
2005-07-12 10:48:02 ....A       263400       243370  apps/aioc/pdflib.dl_
2005-07-12 10:47:34 ....A         1024          311  apps/aioc/scancore.ini
2005-01-31 12:54:52 ....A       270336       125930  apps/setup.exe
2005-09-09 16:50:04 ....A          181          104  apps/setup.ini
2005-09-28 11:02:18 ....A          918          357  dlccEN.vbs
2005-09-28 11:02:18 D....            0            0  drivers
2005-09-28 11:02:22 D....            0            0  drivers/scan
2005-09-22 02:11:12 ....A         9141         5130  drivers/scan/dlcc.cat
2005-06-06 11:58:38 ....A        27841        26060  drivers/scan/dlcccfg.dl_
2005-04-01 12:44:16 ....A        30815        29305  drivers/scan/dlcccnv4.dl_
2005-07-22 14:54:16 ....A       177711       171868  drivers/scan/dlccdrs.dl_
2005-06-20 12:35:58 ....A        87157        82917  drivers/scan/dlcchwdf.dl_
2005-05-11 12:07:12 ....A         2064          929  drivers/scan/dlccprod.ini
2005-09-09 16:50:00 ....A         3158         1083  drivers/scan/DLCCscxp.inf
2005-07-22 14:54:20 ....A       102400        43034  drivers/scan/dlcctwds.ds
2005-09-28 11:02:20 D....            0            0  drivers/win_xp2k
2005-09-28 11:02:20 D....            0            0  drivers/win_xp2k/common
2005-09-09 16:50:10 ....A         1438          493  drivers/win_xp2k/common/DLCC.loc
2005-06-14 16:10:32 ....A      1063330      1018136  drivers/win_xp2k/common/dlccclr1.lu_
2005-06-14 16:10:36 ....A      1063330      1018136  drivers/win_xp2k/common/dlccclr2.lu_
2005-06-14 16:10:40 ....A      1078560      1032404  drivers/win_xp2k/common/dlccclr3.lu_
2005-06-01 14:32:54 ....A       506978       485294  drivers/win_xp2k/common/dlccclr4.lu_
2005-07-22 14:08:48 ....A        51302        34787  drivers/win_xp2k/common/dlccsk0.dl_
2005-07-22 14:08:48 ....A        57302        50024  drivers/win_xp2k/common/dlccsk1.dl_
2005-07-22 14:08:48 ....A        95844        88914  drivers/win_xp2k/common/dlccsk2.dl_
2005-09-28 11:02:22 D....            0            0  drivers/win_xp2k/common/ENGLISH
2005-04-08 11:25:00 ....A         7151         6849  drivers/win_xp2k/common/ENGLISH/dlccceip.hl_
2005-04-21 15:05:02 ....A        46863        42532  drivers/win_xp2k/common/ENGLISH/dlccdpp.hl_
2004-11-10 17:20:10 ....A         3585         3421  drivers/win_xp2k/common/ENGLISH/dlcceula.tx_
2005-03-09 15:14:24 ....A         3459         3307  drivers/win_xp2k/common/ENGLISH/dlcchelp.cn_
2005-05-09 17:37:44 ....A       538044       518899  drivers/win_xp2k/common/ENGLISH/dlcchelp.hl_
2004-03-19 15:21:14 ....A          141          141  drivers/win_xp2k/common/ENGLISH/dlccma.cn_
2003-06-26 10:28:22 ....A         1673         1569  drivers/win_xp2k/common/ENGLISH/dlccnote.hl_
2005-07-22 14:08:54 ....A       341096       325988  drivers/win_xp2k/common/ENGLISH/wavs.ex_
2005-07-11 16:39:34 ....A        11340        10735  drivers/win_xp2k/common/lexgo.ex_
2005-09-22 02:11:12 ....A       139742        23160  drivers/win_xp2k/dlcccdrv.cat
2005-09-22 02:20:44 ....A       134894        23114  drivers/win_xp2k/dlccdr64.cat
2005-09-09 16:50:04 ....A        13067         3384  drivers/win_xp2k/DLCCpr5c.inf
2005-09-09 16:50:02 ....A        11825         3196  drivers/win_xp2k/DLCCpr6c.inf
2005-09-09 16:13:08 ....A           27           27  drivers/win_xp2k/dlccprod.ver
2005-09-28 11:02:22 D....            0            0  drivers/win_xp2k/i386
2005-06-06 11:58:38 ....A        65536        20463  drivers/win_xp2k/i386/dlcccfg.dll
2005-06-21 16:21:30 ....A       213475       203967  drivers/win_xp2k/i386/dlcccfg.ex_
2005-06-21 16:18:58 ....A       355341       340414  drivers/win_xp2k/i386/dlcccomc.dl_
2005-06-21 16:21:40 ....A       231315       221356  drivers/win_xp2k/i386/dlcccomm.dl_
2005-06-21 16:19:38 ....A       260400       249586  drivers/win_xp2k/i386/dlcccoms.ex_
2005-06-16 11:19:20 ....A       219225       209491  drivers/win_xp2k/i386/dlcccomx.dl_
2005-08-30 12:07:34 ....A        32767        31571  drivers/win_xp2k/i386/dlcccu.dl_
2005-08-30 12:07:40 ....A        22159        18416  drivers/win_xp2k/i386/dlcccub.dl_
2005-08-26 08:42:40 ....A        65458        63576  drivers/win_xp2k/i386/dlccdr5c.dl_
2005-04-27 17:30:44 ....A        62459        59522  drivers/win_xp2k/i386/dlccdrec.dl_
2005-05-26 12:00:42 ....A        61068        57999  drivers/win_xp2k/i386/dlccflib.dl_
2005-07-22 14:08:46 ....A       559058       534946  drivers/win_xp2k/i386/dlccgf.dl_
2005-06-21 16:09:22 ....A       387859       369428  drivers/win_xp2k/i386/dlcchbn3.dl_
2005-05-26 12:00:44 ....A       327478       312881  drivers/win_xp2k/i386/dlcchpec.dl_
2005-05-26 12:00:46 ....A       227194       211893  drivers/win_xp2k/i386/dlcchpeh.dl_
2005-05-26 12:00:48 ....A        65841        62452  drivers/win_xp2k/i386/dlcchpep.dl_
2005-06-20 12:35:58 ....A        87157        82917  drivers/win_xp2k/i386/dlcchwdf.dl_
2005-06-21 16:20:08 ....A       214935       205967  drivers/win_xp2k/i386/dlccih.ex_
2005-08-30 12:07:32 ....A        71734        68314  drivers/win_xp2k/i386/dlccins.dl_
2005-08-30 12:07:44 ....A        53502        45510  drivers/win_xp2k/i386/dlccinsb.dl_
2005-08-30 12:06:14 ....A        59479        57447  drivers/win_xp2k/i386/dlccjsw.dl_
2005-08-30 12:07:50 ....A       181694       168980  drivers/win_xp2k/i386/dlccjswb.dl_
2005-06-16 11:18:32 ....A        42171        40428  drivers/win_xp2k/i386/dlccjswx.ex_
2005-06-21 16:22:06 ....A       274373       261638  drivers/win_xp2k/i386/dlcclmpm.dl_
2005-08-30 12:07:24 ....A       489339       468788  drivers/win_xp2k/i386/dlcclpa.dl_
2005-08-30 12:08:02 ....A      1495102      1195715  drivers/win_xp2k/i386/dlcclpab.dl_
2005-08-26 08:42:42 ....A         1398         1343  drivers/win_xp2k/i386/dlccpcfg.dl_
2005-06-21 16:27:56 ....A       351220       334309  drivers/win_xp2k/i386/dlccpmui.dl_
2005-08-26 08:42:56 ....A        36714        35525  drivers/win_xp2k/i386/dlccpp5c.dl_
2005-06-21 16:19:48 ....A        69654        66623  drivers/win_xp2k/i386/dlccpplc.dl_
2005-06-21 16:19:58 ....A       187206       179259  drivers/win_xp2k/i386/dlccppls.ex_
2005-06-16 11:18:28 ....A       191721       183401  drivers/win_xp2k/i386/dlccppx.dl_
2005-05-11 12:07:12 ....A         2064          929  drivers/win_xp2k/i386/dlccprod.ini
2005-06-21 16:18:24 ....A        55064        52069  drivers/win_xp2k/i386/dlccprox.dl_
2005-08-30 12:07:14 ....A       357299       342934  drivers/win_xp2k/i386/dlccprp.dl_
2005-08-30 12:08:18 ....A      1314601      1108587  drivers/win_xp2k/i386/dlccprpb.dl_
2005-08-30 12:06:22 ....A       161279       155117  drivers/win_xp2k/i386/dlccpsw.dl_
2005-08-30 12:08:24 ....A       247133       226506  drivers/win_xp2k/i386/dlccpswb.dl_
2005-06-16 11:19:02 ....A        97552        94275  drivers/win_xp2k/i386/dlccpswx.ex_
2005-06-07 14:38:02 ....A       121943       111744  drivers/win_xp2k/i386/dlccretv.dl_
2005-06-21 16:27:02 ....A       582291       553984  drivers/win_xp2k/i386/dlccserv.dl_
2005-06-07 14:38:28 ....A        28876        27766  drivers/win_xp2k/i386/dlccserv.ex_
2005-06-07 14:38:10 ....A        35701        34278  drivers/win_xp2k/i386/dlcctime.dl_
2005-06-07 14:38:32 ....A        26063        24435  drivers/win_xp2k/i386/dlcctime.ex_
2005-06-06 08:11:48 ....A        94757        90380  drivers/win_xp2k/i386/dlcctsfw.dl_
2005-08-26 08:43:26 ....A        33903        32912  drivers/win_xp2k/i386/dlccui5c.dl_
2005-06-07 14:38:18 ....A       130713       120668  drivers/win_xp2k/i386/dlcculdr.dl_
2005-06-20 12:35:22 ....A       188416        83122  drivers/win_xp2k/i386/dlccunst.exe
2005-08-30 12:07:36 ....A        26823        25755  drivers/win_xp2k/i386/dlccupd.dl_
2005-08-30 12:08:28 ....A        33314        29274  drivers/win_xp2k/i386/dlccupdb.dl_
2005-06-07 14:38:34 ....A        25687        23865  drivers/win_xp2k/i386/dlccupld.ex_
2005-06-21 16:12:48 ....A       557492       529322  drivers/win_xp2k/i386/dlccusb1.dl_
2005-08-30 12:06:04 ....A       206152       197253  drivers/win_xp2k/i386/dlccutil.dl_
2005-06-07 14:38:30 ....A        26077        24437  drivers/win_xp2k/i386/dlccview.ex_
2005-07-28 14:47:14 ....A        19157        17858  drivers/win_xp2k/i386/dlccvs.dl_
2005-09-28 11:02:22 D....            0            0  drivers/win_xp2k/i386/ENGLISH
2005-08-30 12:08:46 ....A        10083         9392  drivers/win_xp2k/i386/ENGLISH/dlcccur.dl_
2005-08-30 12:08:50 ....A        26036        24351  drivers/win_xp2k/i386/ENGLISH/dlccinsr.dl_
2005-08-30 12:08:30 ....A        37511        35473  drivers/win_xp2k/i386/ENGLISH/dlccjswr.dl_
2005-08-30 12:08:34 ....A        72296        69274  drivers/win_xp2k/i386/ENGLISH/dlcclpar.dl_
2005-08-30 12:08:44 ....A        45722        43896  drivers/win_xp2k/i386/ENGLISH/dlccprpr.dl_
2005-08-30 12:08:40 ....A        22601        20864  drivers/win_xp2k/i386/ENGLISH/dlccpswr.dl_
2005-08-26 08:47:06 ....A        52550        43018  drivers/win_xp2k/i386/ENGLISH/dlccstrn.dl_
2005-08-30 12:08:56 ....A        20734        17816  drivers/win_xp2k/i386/ENGLISH/dlccupdr.dl_
2005-04-27 10:06:34 ....A       247844       236942  drivers/win_xp2k/i386/lexedf.dl_
2005-09-28 11:02:26 D....            0            0  fax
2005-09-28 11:02:18 D....            0            0  fax/ENGLISH
2005-09-28 11:02:26 D....            0            0  fax/msfax
2005-03-21 12:20:14 ....A        49152        23064  fax/msfax/setup.exe
2005-01-31 12:54:52 ....A       270336       125930  fax/setup.exe
2005-09-09 16:50:04 ....A          176          103  fax/Setup.ini
2005-09-28 11:02:18 D....            0            0  install
2005-09-09 16:50:08 ....A           85           53  install/appinst.isf
2005-04-06 15:27:30 ....A          164          123  install/BEUnst.isf
2005-09-28 11:02:18 D....            0            0  install/config
2005-06-23 14:40:30 ....A         9054         1487  install/config/aioc.cif
2005-02-11 21:48:36 ....A          394          277  install/config/appinst.cif
2005-09-28 11:02:18 D....            0            0  install/config/image
2004-07-12 15:29:14 ....A          222           77  install/config/image/arrow.bmp
2005-05-18 08:48:58 ....A        12170         6362  install/config/image/bkground.jpg
2005-05-18 08:48:58 ....A        10061         6489  install/config/image/bkRTL.jpg
2004-10-27 10:26:44 ....A       106962          292  install/config/image/bottom.bmp
2005-05-18 08:48:58 ....A       106964          514  install/config/image/bottrtl.bmp
2004-10-27 10:26:44 ....A         1386          590  install/config/image/browse.ico
2004-07-12 15:29:14 ....A          512          113  install/config/image/cs.bmp
2004-07-12 15:29:14 ....A          512           98  install/config/image/da.bmp
2004-07-12 15:29:14 ....A          512          102  install/config/image/de.bmp
2004-10-27 10:26:44 ....A         1310           43  install/config/image/divider.bmp
2004-07-12 15:29:14 ....A          512          105  install/config/image/el.bmp
2004-07-12 15:29:14 ....A          512           96  install/config/image/en.bmp
2004-07-12 15:29:14 ....A          512          101  install/config/image/es.bmp
2004-07-12 15:29:14 ....A          512           84  install/config/image/fi.bmp
2004-10-27 10:26:44 ....A         6678          474  install/config/image/folder.bmp
2004-07-12 15:29:14 ....A          512          102  install/config/image/fr.bmp
2004-07-12 15:29:14 ....A          512           80  install/config/image/it.bmp
2004-07-12 15:29:14 ....A          512          174  install/config/image/ja.bmp
2004-10-27 10:26:44 ....A       127638         6718  install/config/image/left.bmp
2004-07-12 15:29:14 ....A          512          121  install/config/image/nl.bmp
2004-07-12 15:29:14 ....A          512           91  install/config/image/no.bmp
2004-07-12 15:29:14 ....A          512           93  install/config/image/pl.bmp
2005-05-25 12:51:20 ....A        14130          971  install/config/image/prodkey.bmp
2004-07-12 15:29:14 ....A          512          170  install/config/image/pt_br.bmp
2004-07-12 15:29:14 ....A          512          166  install/config/image/ru.bmp
2005-02-10 18:22:58 ....A       199734        51476  install/config/image/sideimg.bmp
2004-07-12 15:29:14 ....A          512          105  install/config/image/sv.bmp
2004-07-12 15:29:14 ....A          512          259  install/config/image/zh.bmp
2005-09-09 16:50:08 ....A          489          203  install/config/install.map
2005-04-11 17:12:50 ....A         3009          609  install/config/leadtool.cif
2005-08-18 09:46:04 ....A         6486         1125  install/config/main.cgf
2005-06-10 09:41:08 ....A         4280          996  install/config/main.xml
2005-05-16 14:37:36 ....A         3736          826  install/config/mcm.cif
2004-07-12 15:29:14 ....A          565          355  install/config/msfax.cif
2005-09-28 11:02:18 D....            0            0  install/config/nls
2005-09-09 16:50:06 ....A          855          477  install/config/nls/common.nls
2005-05-31 14:52:42 ....A        11710         3847  install/config/nls/en.nls
2004-07-12 15:29:14 ....A          356          225  install/config/nls/langconv.ini
2005-09-09 16:50:06 ....A          401          252  install/config/nls/oem.nls
2005-04-11 17:12:50 ....A         2049          674  install/config/ocr.cif
2005-04-11 17:12:50 ....A         3234          845  install/config/photoed.cif
2005-09-09 16:50:08 ....A          214          138  install/config/Product.ini
2005-02-14 11:42:54 ....A         1881          692  install/config/uninst.cgf
2005-06-23 15:37:22 ....A         4454         1306  install/config/uninst.cif
2004-11-01 16:12:30 ....A           47           40  install/config/uninst.ini
2005-02-14 11:42:54 ....A         3894          988  install/config/uninst.xml
2005-04-11 17:12:50 ....A         3655          720  install/config/uninstlr.cif
2005-05-31 14:52:42 ....A         4512         1191  install/config/vendor.cif
2005-09-27 10:38:32 ....A       159744        70788  install/dlccadv.exe
2005-06-06 11:58:38 ....A        65536        20463  install/dlcccfg.dll
2005-06-20 12:34:32 ....A       139264        60861  install/dlccfire.exe
2005-07-22 14:08:46 ....A       983092       453939  install/dlccgf.dll
2005-08-30 12:07:32 ....A       155648        53220  install/dlccins.dll
2005-08-30 12:07:44 ....A       176128        30880  install/dlccinsb.dll
2005-09-26 16:38:44 ....A       221184        92157  install/dlccinst.exe
2005-08-16 15:54:04 ....A         2064          929  install/dlccprod.ini
2005-06-20 12:35:22 ....A       188416        83122  install/dlccunst.exe
2005-08-30 12:06:04 ....A       430080       161912  install/dlccutil.dll
2005-09-28 11:02:18 D....            0            0  install/ENGLISH
2005-04-08 11:25:00 ....A        23261         4788  install/ENGLISH/dlccceip.hlp
2005-04-21 15:05:02 ....A       159970        26150  install/ENGLISH/dlccdpp.hlp
2004-11-10 17:20:10 ....A         7165         2877  install/ENGLISH/dlcceula.txt
2005-03-09 15:14:24 ....A         7469         2704  install/ENGLISH/dlcchelp.cnt
2005-05-09 17:37:44 ....A      1033192       436062  install/ENGLISH/dlcchelp.hlp
2005-08-30 12:08:50 ....A       106496        15075  install/ENGLISH/dlccinsr.dll
2005-08-30 12:08:30 ....A       131072        26399  install/ENGLISH/dlccjswr.dll
2004-07-12 15:29:14 ....A           26           23  install/msfax.isf
2004-02-16 12:21:38 ....A           22           21  install/ocr.isf
2005-09-28 11:02:18 ....A           37           30  install/vendor.isf
2005-09-28 11:02:20 D....            0            0  install/x86
2005-04-28 15:33:36 ....A      1118208       473478  install/x86/engine.dll
2005-05-03 14:33:24 ....A      2310144      1004690  install/x86/instgui.exe
2005-04-13 13:37:10 ....A       339968       154456  install/x86/lexlog.dll
2004-02-16 12:43:20 ....A       246424       110495  install/x86/unicows.dll
2005-05-03 14:33:24 ....A      2314240      1001855  install/x86/uninst.exe
2005-09-28 11:02:26 D....            0            0  pubs
2004-11-04 11:20:36 ....A          259           85  pubs/dlccdefs.xml
2005-09-14 13:29:38 ....A         4416         1687  pubs/dlcctele.ini
2005-09-28 11:02:26 D....            0            0  pubs/ENGLISH
2005-03-25 09:42:22 ....A      1525238      1518377  pubs/ENGLISH/dlccuser.chm
2005-01-31 12:54:52 ....A       270336       125930  setup.exe
2005-08-12 12:55:20 ....A          111           64  setup.ini
------------------- ----- ------------ ------------  ------------------------
                              47781571     37755731  315 files, 21 folders
Backup Download Server
Driver Summary
Dell Photo All-In-One Printer 924 Driver v.G11a A02 Windows 2000/XP. A02 English 32-bit webpack.
Driver Support Models
The driver can be applied to the following product models:
The Related Drivers